Weather History for KASW - January, 2012

Change the Weather History Date:

Monday, January 23, 2012

  Actual Average Record
Temperature  
Mean Temperature 39 °F -  
Max Temperature 46 °F 34 °F 58 °F (1964)
Min Temperature 32 °F 17 °F -15 °F (1970)
Degree Days  
Heating Degree Days 26    
Moisture  
Dew Point 37 °F    
Average Humidity 93    
Maximum Humidity 100    
Minimum Humidity 75    
Precipitation  
Precipitation 0.26 in - - ()
Sea Level Pressure  
Sea Level Pressure 29.59 in    
Wind  
Wind Speed 13 mph (SSW)    
Max Wind Speed 29 mph    
Max Gust Speed 39 mph    
Visibility 6 miles    
Events Rain    
Averages and records for this station are not official NWS values.
T = Trace of Precipitation, MM = Missing Value Source: NWS Daily Summary

Daily Weather History Graph

Daily Weather History Graph

Search for Another Location

Airport or City:

Trip Planner

Search our weather history database for the weather conditions in past years. The results will help you decide how hot, cold, wet, or windy it might be!

Date:

Astronomy

Jan. 23, 2012 Rise Set
Actual Time 8:02 AM EST 5:48 PM EST
Civil Twilight 7:32 AM EST 6:17 PM EST
Nautical Twilight 6:59 AM EST 6:51 PM EST
Astronomical Twilight 6:26 AM EST 7:24 PM EST
Moon 7:57 AM EST (1/23) 6:36 PM EST (1/23)
Length of Visible Light 10h 45m
Length of Day
9h 45m
New Moon, 0% of the Moon is Illuminated
Jan 23
New Moon
Jan 30
First Quarter
Feb 7
Full
Feb 14
Last Quarter
Feb 21
New

Hourly Weather History & Observations

Time (EST) Temp. Windchill Dew Point Humidity Pressure Visibility Wind Dir Wind Speed Gust Speed Precip Events Conditions
12:15 AM 41.0 °F 33.9 °F 41.0 °F 100% 29.63 in 1.0 mi SE 12.7 mph 21.9 mph N/A Rain Light Rain
12:35 AM 41.0 °F 33.9 °F 41.0 °F 100% 29.61 in 1.5 mi SE 12.7 mph 20.7 mph N/A   Overcast
12:55 AM 42.8 °F 37.5 °F 42.8 °F 100% 29.60 in 1.0 mi SE 9.2 mph 19.6 mph N/A   Overcast
1:35 AM 42.8 °F 35.8 °F 42.8 °F 100% 29.54 in 1.5 mi SE 13.8 mph 19.6 mph N/A   Overcast
1:55 AM 42.8 °F 35.8 °F 42.8 °F 100% 29.51 in 1.5 mi SE 13.8 mph 21.9 mph N/A   Overcast
2:15 AM 44.6 °F 38.8 °F 44.6 °F 100% 29.51 in 2.0 mi SSE 11.5 mph 18.4 mph 0.02 in Rain Rain
2:35 AM 44.6 °F 40.2 °F 44.6 °F 100% 29.54 in 2.5 mi SSE 8.1 mph 17.3 mph 0.05 in Rain Rain
2:55 AM 44.6 °F 41.4 °F 44.6 °F 100% 29.57 in 1.8 mi South 5.8 mph - 0.17 in Rain Rain
3:15 AM 44.6 °F 41.4 °F 44.6 °F 100% 29.56 in 5.0 mi SSW 5.8 mph - N/A   Overcast
3:35 AM 46.4 °F 42.4 °F 46.4 °F 100% 29.56 in 5.0 mi South 8.1 mph 16.1 mph 0.01 in Rain Rain
3:55 AM 46.4 °F 41.9 °F 44.6 °F 93% 29.54 in 7.0 mi South 9.2 mph - 0.01 in Rain Light Rain
4:15 AM 44.6 °F 41.4 °F 44.6 °F 100% 29.51 in 5.0 mi SSE 5.8 mph - 0.01 in Rain Rain
4:35 AM 44.6 °F 39.7 °F 44.6 °F 100% 29.46 in 5.0 mi SE 9.2 mph - 0.03 in Rain Light Rain
4:55 AM 44.6 °F 40.2 °F 44.6 °F 100% 29.48 in 10.0 mi South 8.1 mph - 0.03 in   Mostly Cloudy
5:15 AM 42.8 °F 38.6 °F 42.8 °F 100% 29.48 in 10.0 mi SSE 6.9 mph - N/A   Scattered Clouds
5:35 AM 42.8 °F 37.5 °F 42.8 °F 100% 29.46 in 10.0 mi SSE 9.2 mph - N/A   Clear
5:55 AM 42.8 °F 38.6 °F 42.8 °F 100% 29.47 in 10.0 mi SSE 6.9 mph - N/A   Clear
6:15 AM 42.8 °F 38.6 °F 42.8 °F 100% 29.47 in 10.0 mi South 6.9 mph - N/A   Clear
6:35 AM 42.8 °F 38.6 °F 42.8 °F 100% 29.47 in 10.0 mi South 6.9 mph - N/A   Clear
6:55 AM 42.8 °F 37.5 °F 42.8 °F 100% 29.47 in 10.0 mi South 9.2 mph - N/A   Clear
7:15 AM 44.6 °F 38.8 °F 42.8 °F 93% 29.47 in 10.0 mi South 11.5 mph 18.4 mph N/A   Scattered Clouds
7:35 AM 44.6 °F 39.7 °F 42.8 °F 93% 29.47 in 10.0 mi South 9.2 mph 20.7 mph N/A   Scattered Clouds
8:15 AM 44.6 °F 39.7 °F 42.8 °F 93% 29.47 in 10.0 mi South 9.2 mph - N/A   Overcast
8:35 AM 44.6 °F 40.2 °F 42.8 °F 93% 29.47 in 10.0 mi South 8.1 mph 18.4 mph N/A   Overcast
8:55 AM 44.6 °F 39.7 °F 42.8 °F 93% 29.47 in 10.0 mi South 9.2 mph 16.1 mph N/A   Overcast
9:15 AM 44.6 °F 41.4 °F 42.8 °F 93% 29.46 in 10.0 mi South 5.8 mph - N/A   Overcast
9:35 AM 44.6 °F 39.7 °F 42.8 °F 93% 29.45 in 10.0 mi South 9.2 mph - N/A   Overcast
9:55 AM 44.6 °F 39.2 °F 42.8 °F 93% 29.46 in 5.0 mi South 10.4 mph 16.1 mph N/A Rain Rain
10:15 AM 44.6 °F 39.7 °F 44.6 °F 100% 29.46 in 3.0 mi South 9.2 mph - 0.01 in Rain Heavy Rain
10:55 AM 44.6 °F 40.7 °F 44.6 °F 100% 29.47 in 4.0 mi SW 6.9 mph - 0.02 in   Heavy Drizzle
11:15 AM 46.4 °F 40.4 °F 44.6 °F 93% 29.48 in 2.5 mi SW 13.8 mph 24.2 mph 0.01 in   Heavy Drizzle
11:35 AM 44.6 °F 36.1 °F 42.8 °F 93% 29.49 in 2.0 mi WSW 21.9 mph 28.8 mph 0.01 in Rain Rain
11:55 AM 41.0 °F 31.6 °F 39.2 °F 93% 29.51 in 2.5 mi WSW 20.7 mph 33.4 mph 0.02 in   Drizzle
12:15 PM 41.0 °F 32.5 °F 37.4 °F 87% 29.53 in 2.5 mi WSW 17.3 mph 28.8 mph N/A Rain Rain
12:35 PM 37.4 °F 25.9 °F 35.6 °F 93% 29.54 in 2.5 mi WSW 25.3 mph 39.1 mph N/A Rain Light Rain
12:55 PM 35.6 °F 24.0 °F 33.8 °F 93% 29.56 in 3.0 mi WSW 23.0 mph 33.4 mph N/A Rain Light Rain
1:15 PM 35.6 °F 24.2 °F 33.8 °F 93% 29.57 in 7.0 mi WSW 21.9 mph 28.8 mph N/A   Overcast
1:55 PM 33.8 °F 21.9 °F 32.0 °F 93% 29.59 in 2.5 mi WSW 21.9 mph 31.1 mph N/A Rain Rain
2:35 PM 33.8 °F 23.5 °F 32.0 °F 93% 29.61 in 2.0 mi WSW 16.1 mph 29.9 mph 0.01 in Rain Light Rain
3:15 PM 33.8 °F 23.5 °F 32.0 °F 93% 29.63 in 2.5 mi WSW 16.1 mph 28.8 mph N/A Rain Light Rain
3:35 PM 32.0 °F 19.8 °F 32.0 °F 100% 29.63 in 2.5 mi SW 20.7 mph 31.1 mph N/A Rain Light Rain
3:55 PM 32.0 °F 19.8 °F 32.0 °F 100% 29.65 in 4.0 mi WSW 20.7 mph 31.1 mph N/A   Light Drizzle
4:15 PM 32.0 °F 19.2 °F 32.0 °F 100% 29.66 in 5.0 mi WSW 23.0 mph 29.9 mph N/A   Overcast
4:35 PM 32.0 °F 20.8 °F 32.0 °F 100% 29.67 in 5.0 mi WSW 17.3 mph 27.6 mph N/A   Overcast
4:55 PM 32.0 °F 21.6 °F 30.2 °F 93% 29.69 in 7.0 mi WSW 15.0 mph 32.2 mph N/A   Overcast
5:15 PM 32.0 °F 20.8 °F 30.2 °F 93% 29.70 in 10.0 mi WSW 17.3 mph 32.2 mph N/A   Overcast
5:35 PM 32.0 °F 20.1 °F 30.2 °F 93% 29.72 in 7.0 mi WSW 19.6 mph 27.6 mph N/A   Overcast
5:55 PM 32.0 °F 18.4 °F 28.4 °F 87% 29.74 in 10.0 mi West 26.5 mph 33.4 mph N/A   Overcast
6:15 PM 32.0 °F 18.9 °F 28.4 °F 87% 29.75 in 10.0 mi West 24.2 mph 29.9 mph N/A   Overcast
6:35 PM 32.0 °F 19.5 °F 28.4 °F 87% 29.77 in 10.0 mi WSW 21.9 mph 29.9 mph N/A   Overcast
6:55 PM 32.0 °F 19.8 °F 26.6 °F 80% 29.79 in 10.0 mi WSW 20.7 mph 32.2 mph N/A   Overcast
7:15 PM 32.0 °F 17.9 °F 26.6 °F 80% 29.80 in 10.0 mi West 28.8 mph 34.5 mph N/A   Overcast
7:35 PM 32.0 °F 20.8 °F 26.6 °F 80% 29.81 in 10.0 mi West 17.3 mph 26.5 mph N/A   Overcast
7:55 PM 32.0 °F 20.1 °F 26.6 °F 80% 29.82 in 10.0 mi West 19.6 mph 36.8 mph N/A   Overcast
8:15 PM 32.0 °F 19.2 °F 24.8 °F 75% 29.84 in 10.0 mi West 23.0 mph 31.1 mph N/A   Overcast
8:35 PM 32.0 °F 19.5 °F 24.8 °F 75% 29.85 in 10.0 mi West 21.9 mph 29.9 mph N/A   Overcast
8:55 PM 32.0 °F 20.8 °F 24.8 °F 75% 29.86 in 10.0 mi West 17.3 mph 26.5 mph N/A   Overcast
9:15 PM 32.0 °F 19.5 °F 24.8 °F 75% 29.86 in 10.0 mi West 21.9 mph 26.5 mph N/A   Overcast
9:35 PM 32.0 °F 21.2 °F 24.8 °F 75% 29.88 in 10.0 mi West 16.1 mph - N/A   Overcast
9:55 PM 32.0 °F 21.2 °F 26.6 °F 80% 29.88 in 10.0 mi West 16.1 mph 23.0 mph N/A   Overcast
10:15 PM 32.0 °F 19.2 °F 26.6 °F 80% 29.88 in 10.0 mi West 23.0 mph 28.8 mph N/A   Overcast
10:35 PM 32.0 °F 19.8 °F 26.6 °F 80% 29.89 in 10.0 mi West 20.7 mph 33.4 mph N/A   Overcast
10:55 PM 32.0 °F 19.8 °F 26.6 °F 80% 29.89 in 10.0 mi West 20.7 mph 32.2 mph N/A   Overcast
11:15 PM 32.0 °F 19.5 °F 26.6 °F 80% 29.90 in 10.0 mi West 21.9 mph 26.5 mph N/A   Overcast
11:35 PM 32.0 °F 20.5 °F 26.6 °F 80% 29.90 in 10.0 mi West 18.4 mph 26.5 mph N/A   Overcast
11:55 PM 32.0 °F 22.5 °F 26.6 °F 80% 29.90 in 10.0 mi West 12.7 mph 18.4 mph N/A   Overcast